sensor_id;sensor_type;location;lat;lon;timestamp;pressure;altitude;pressure_sealevel;temperature;humidity
63019;BME280;49105;46.046;10.760;2023-05-07T00:02:04;95726.13;;;16.02;62.79
63019;BME280;49105;46.046;10.760;2023-05-07T00:04:29;95725.22;;;16.06;62.81
63019;BME280;49105;46.046;10.760;2023-05-07T00:07:00;95730.56;;;16.06;62.70
63019;BME280;49105;46.046;10.760;2023-05-07T00:09:26;95733.03;;;16.03;62.68
63019;BME280;49105;46.046;10.760;2023-05-07T00:11:51;95735.53;;;15.99;62.67
63019;BME280;49105;46.046;10.760;2023-05-07T00:14:16;95743.00;;;15.88;62.82
63019;BME280;49105;46.046;10.760;2023-05-07T00:16:42;95735.28;;;15.87;62.77
63019;BME280;49105;46.046;10.760;2023-05-07T00:19:07;95732.81;;;15.91;62.91
63019;BME280;49105;46.046;10.760;2023-05-07T00:21:32;95731.06;;;15.86;63.24
63019;BME280;49105;46.046;10.760;2023-05-07T00:23:57;95727.88;;;15.84;62.99
63019;BME280;49105;46.046;10.760;2023-05-07T00:26:23;95726.81;;;15.85;63.07
63019;BME280;49105;46.046;10.760;2023-05-07T00:28:48;95733.53;;;15.82;63.17
63019;BME280;49105;46.046;10.760;2023-05-07T00:31:13;95729.88;;;15.78;63.13
63019;BME280;49105;46.046;10.760;2023-05-07T00:33:38;95732.09;;;15.62;63.51
63019;BME280;49105;46.046;10.760;2023-05-07T00:36:04;95725.31;;;15.56;63.46
63019;BME280;49105;46.046;10.760;2023-05-07T00:38:29;95728.75;;;15.57;63.54
63019;BME280;49105;46.046;10.760;2023-05-07T00:40:54;95725.69;;;15.63;63.41
63019;BME280;49105;46.046;10.760;2023-05-07T00:43:20;95727.75;;;15.67;63.24
63019;BME280;49105;46.046;10.760;2023-05-07T00:45:45;95724.81;;;15.68;63.33
63019;BME280;49105;46.046;10.760;2023-05-07T00:48:10;95725.09;;;15.67;63.60
63019;BME280;49105;46.046;10.760;2023-05-07T00:50:36;95719.66;;;15.58;63.57
63019;BME280;49105;46.046;10.760;2023-05-07T00:53:01;95717.31;;;15.56;63.42
63019;BME280;49105;46.046;10.760;2023-05-07T00:55:27;95718.22;;;15.52;63.53
63019;BME280;49105;46.046;10.760;2023-05-07T00:57:53;95711.19;;;15.56;63.66
63019;BME280;49105;46.046;10.760;2023-05-07T01:00:18;95712.16;;;15.60;63.60
63019;BME280;49105;46.046;10.760;2023-05-07T01:02:44;95707.09;;;15.58;63.18
63019;BME280;49105;46.046;10.760;2023-05-07T01:05:12;95709.00;;;15.58;63.31
63019;BME280;49105;46.046;10.760;2023-05-07T01:07:38;95706.44;;;15.53;63.55
63019;BME280;49105;46.046;10.760;2023-05-07T01:10:04;95695.00;;;15.52;63.75
63019;BME280;49105;46.046;10.760;2023-05-07T01:12:30;95697.34;;;15.54;63.76
63019;BME280;49105;46.046;10.760;2023-05-07T01:14:56;95699.81;;;15.50;63.83
63019;BME280;49105;46.046;10.760;2023-05-07T01:17:21;95697.16;;;15.50;63.86
63019;BME280;49105;46.046;10.760;2023-05-07T01:19:47;95694.81;;;15.49;63.90
63019;BME280;49105;46.046;10.760;2023-05-07T01:22:13;95697.16;;;15.50;63.93
63019;BME280;49105;46.046;10.760;2023-05-07T01:24:41;95700.91;;;15.49;63.82
63019;BME280;49105;46.046;10.760;2023-05-07T01:27:06;95705.47;;;15.49;63.90
63019;BME280;49105;46.046;10.760;2023-05-07T01:29:31;95707.63;;;15.47;63.76
63019;BME280;49105;46.046;10.760;2023-05-07T01:31:57;95715.28;;;15.39;63.80
63019;BME280;49105;46.046;10.760;2023-05-07T01:34:24;95712.53;;;15.31;64.23
63019;BME280;49105;46.046;10.760;2023-05-07T01:36:50;95711.84;;;15.25;64.18
63019;BME280;49105;46.046;10.760;2023-05-07T01:39:17;95701.78;;;15.22;64.54
63019;BME280;49105;46.046;10.760;2023-05-07T01:41:42;95698.44;;;15.17;65.10
63019;BME280;49105;46.046;10.760;2023-05-07T01:44:08;95702.13;;;15.07;65.31
63019;BME280;49105;46.046;10.760;2023-05-07T01:46:35;95697.56;;;15.07;65.82
63019;BME280;49105;46.046;10.760;2023-05-07T01:49:00;95697.06;;;15.05;66.02
63019;BME280;49105;46.046;10.760;2023-05-07T01:51:26;95696.28;;;15.05;65.82
63019;BME280;49105;46.046;10.760;2023-05-07T01:53:52;95698.47;;;15.03;66.02
63019;BME280;49105;46.046;10.760;2023-05-07T01:56:18;95695.03;;;15.02;65.95
63019;BME280;49105;46.046;10.760;2023-05-07T01:58:44;95702.03;;;14.98;66.12
63019;BME280;49105;46.046;10.760;2023-05-07T02:01:10;95696.50;;;14.95;66.20
63019;BME280;49105;46.046;10.760;2023-05-07T02:03:36;95697.38;;;15.04;65.36
63019;BME280;49105;46.046;10.760;2023-05-07T02:06:01;95705.16;;;15.14;65.29
63019;BME280;49105;46.046;10.760;2023-05-07T02:08:26;95706.75;;;15.15;65.39
63019;BME280;49105;46.046;10.760;2023-05-07T02:10:52;95698.25;;;15.13;65.14
63019;BME280;49105;46.046;10.760;2023-05-07T02:13:18;95700.31;;;15.16;65.04
63019;BME280;49105;46.046;10.760;2023-05-07T02:15:44;95704.09;;;15.15;65.27
63019;BME280;49105;46.046;10.760;2023-05-07T02:18:14;95695.47;;;15.18;65.07
63019;BME280;49105;46.046;10.760;2023-05-07T02:20:39;95698.03;;;15.23;64.86
63019;BME280;49105;46.046;10.760;2023-05-07T02:23:04;95696.47;;;15.08;65.15
63019;BME280;49105;46.046;10.760;2023-05-07T02:25:30;95702.72;;;15.04;65.28
63019;BME280;49105;46.046;10.760;2023-05-07T02:27:55;95694.72;;;15.04;65.53
63019;BME280;49105;46.046;10.760;2023-05-07T02:30:20;95699.06;;;15.00;65.27
63019;BME280;49105;46.046;10.760;2023-05-07T02:32:46;95697.88;;;14.92;65.75
63019;BME280;49105;46.046;10.760;2023-05-07T02:35:11;95698.69;;;14.93;65.36
63019;BME280;49105;46.046;10.760;2023-05-07T02:37:36;95701.84;;;14.95;65.62
63019;BME280;49105;46.046;10.760;2023-05-07T02:40:02;95703.09;;;14.97;65.36
63019;BME280;49105;46.046;10.760;2023-05-07T02:42:29;95691.84;;;15.00;65.40
63019;BME280;49105;46.046;10.760;2023-05-07T02:44:54;95693.16;;;15.03;65.46
63019;BME280;49105;46.046;10.760;2023-05-07T02:47:19;95696.28;;;15.05;65.64
63019;BME280;49105;46.046;10.760;2023-05-07T02:49:45;95693.34;;;15.06;65.53
63019;BME280;49105;46.046;10.760;2023-05-07T02:52:10;95695.03;;;15.02;65.57
63019;BME280;49105;46.046;10.760;2023-05-07T02:54:35;95691.97;;;14.95;65.86
63019;BME280;49105;46.046;10.760;2023-05-07T02:57:00;95691.31;;;14.89;66.01
63019;BME280;49105;46.046;10.760;2023-05-07T02:59:27;95693.97;;;14.89;66.23
63019;BME280;49105;46.046;10.760;2023-05-07T03:01:52;95691.00;;;14.91;66.02
63019;BME280;49105;46.046;10.760;2023-05-07T03:04:17;95688.00;;;14.93;65.81
63019;BME280;49105;46.046;10.760;2023-05-07T03:06:43;95686.44;;;14.92;65.90
63019;BME280;49105;46.046;10.760;2023-05-07T03:09:08;95687.44;;;14.96;65.81
63019;BME280;49105;46.046;10.760;2023-05-07T03:11:33;95690.88;;;14.96;65.93
63019;BME280;49105;46.046;10.760;2023-05-07T03:14:00;95689.09;;;14.92;65.65
63019;BME280;49105;46.046;10.760;2023-05-07T03:16:25;95690.81;;;14.74;66.25
63019;BME280;49105;46.046;10.760;2023-05-07T03:18:51;95700.88;;;14.63;66.18
63019;BME280;49105;46.046;10.760;2023-05-07T03:21:16;95710.53;;;14.59;66.37
63019;BME280;49105;46.046;10.760;2023-05-07T03:23:42;95711.13;;;14.70;66.45
63019;BME280;49105;46.046;10.760;2023-05-07T03:26:07;95704.91;;;14.74;66.36
63019;BME280;49105;46.046;10.760;2023-05-07T03:28:32;95713.69;;;14.75;66.30
63019;BME280;49105;46.046;10.760;2023-05-07T03:30:57;95708.06;;;14.76;66.23
63019;BME280;49105;46.046;10.760;2023-05-07T03:33:23;95705.78;;;14.83;66.08
63019;BME280;49105;46.046;10.760;2023-05-07T03:35:48;95704.69;;;14.84;65.82
63019;BME280;49105;46.046;10.760;2023-05-07T03:38:13;95708.66;;;14.87;66.08
63019;BME280;49105;46.046;10.760;2023-05-07T03:40:39;95712.31;;;14.77;65.95
63019;BME280;49105;46.046;10.760;2023-05-07T03:43:04;95716.06;;;14.62;66.35
63019;BME280;49105;46.046;10.760;2023-05-07T03:45:30;95715.19;;;14.53;66.95
63019;BME280;49105;46.046;10.760;2023-05-07T03:47:55;95720.19;;;14.55;67.09
63019;BME280;49105;46.046;10.760;2023-05-07T03:50:20;95712.63;;;14.62;66.43
63019;BME280;49105;46.046;10.760;2023-05-07T03:52:45;95716.66;;;14.73;66.12
63019;BME280;49105;46.046;10.760;2023-05-07T03:55:11;95714.47;;;14.75;66.42
63019;BME280;49105;46.046;10.760;2023-05-07T03:57:36;95712.81;;;14.66;66.64
63019;BME280;49105;46.046;10.760;2023-05-07T04:00:01;95705.41;;;14.62;66.60
63019;BME280;49105;46.046;10.760;2023-05-07T04:02:28;95709.44;;;14.60;67.45
63019;BME280;49105;46.046;10.760;2023-05-07T04:04:54;95693.78;;;14.58;67.71
63019;BME280;49105;46.046;10.760;2023-05-07T04:07:19;95693.97;;;14.62;67.50
63019;BME280;49105;46.046;10.760;2023-05-07T04:09:44;95694.75;;;14.62;67.42
63019;BME280;49105;46.046;10.760;2023-05-07T04:12:10;95695.75;;;14.67;67.45
63019;BME280;49105;46.046;10.760;2023-05-07T04:14:35;95695.94;;;14.70;67.23
63019;BME280;49105;46.046;10.760;2023-05-07T04:17:00;95685.50;;;14.74;67.38
63019;BME280;49105;46.046;10.760;2023-05-07T04:19:25;95689.13;;;14.78;66.87
63019;BME280;49105;46.046;10.760;2023-05-07T04:21:51;95694.75;;;14.76;67.05
63019;BME280;49105;46.046;10.760;2023-05-07T04:24:17;95702.53;;;14.73;66.99
63019;BME280;49105;46.046;10.760;2023-05-07T04:26:43;95696.53;;;14.67;67.16
63019;BME280;49105;46.046;10.760;2023-05-07T04:29:08;95698.72;;;14.65;66.69
63019;BME280;49105;46.046;10.760;2023-05-07T04:31:33;95699.50;;;14.66;66.96
63019;BME280;49105;46.046;10.760;2023-05-07T04:33:58;95695.22;;;14.64;67.16
63019;BME280;49105;46.046;10.760;2023-05-07T04:36:24;95707.41;;;14.57;67.44
63019;BME280;49105;46.046;10.760;2023-05-07T04:38:52;95711.13;;;14.56;67.35
63019;BME280;49105;46.046;10.760;2023-05-07T04:41:17;95709.38;;;14.65;67.22
63019;BME280;49105;46.046;10.760;2023-05-07T04:43:43;95710.53;;;14.73;67.48
63019;BME280;49105;46.046;10.760;2023-05-07T04:46:09;95701.06;;;14.80;67.18
63019;BME280;49105;46.046;10.760;2023-05-07T04:48:35;95707.97;;;14.81;67.14
63019;BME280;49105;46.046;10.760;2023-05-07T04:51:00;95706.59;;;14.84;67.12
63019;BME280;49105;46.046;10.760;2023-05-07T04:53:25;95702.03;;;14.84;67.35
63019;BME280;49105;46.046;10.760;2023-05-07T04:55:56;95698.19;;;14.91;66.60
63019;BME280;49105;46.046;10.760;2023-05-07T04:58:22;95692.66;;;14.87;67.33
63019;BME280;49105;46.046;10.760;2023-05-07T05:00:48;95692.56;;;14.92;67.04
63019;BME280;49105;46.046;10.760;2023-05-07T05:03:14;95696.28;;;15.05;67.04
63019;BME280;49105;46.046;10.760;2023-05-07T05:05:40;95709.63;;;15.19;66.36
63019;BME280;49105;46.046;10.760;2023-05-07T05:08:05;95709.78;;;15.22;66.27
63019;BME280;49105;46.046;10.760;2023-05-07T05:10:30;95705.63;;;15.30;66.20
63019;BME280;49105;46.046;10.760;2023-05-07T05:12:56;95696.72;;;15.34;66.52
63019;BME280;49105;46.046;10.760;2023-05-07T05:15:21;95699.38;;;15.34;66.63
63019;BME280;49105;46.046;10.760;2023-05-07T05:17:47;95702.53;;;15.36;66.59
63019;BME280;49105;46.046;10.760;2023-05-07T05:20:12;95709.25;;;15.48;66.25
63019;BME280;49105;46.046;10.760;2023-05-07T05:22:38;95701.78;;;15.58;66.02
63019;BME280;49105;46.046;10.760;2023-05-07T05:25:03;95709.69;;;15.63;66.07
63019;BME280;49105;46.046;10.760;2023-05-07T05:27:28;95712.53;;;15.67;66.00
63019;BME280;49105;46.046;10.760;2023-05-07T05:29:54;95722.00;;;15.73;65.83
63019;BME280;49105;46.046;10.760;2023-05-07T05:32:19;95720.44;;;15.72;65.90
63019;BME280;49105;46.046;10.760;2023-05-07T05:34:45;95724.19;;;15.71;65.76
63019;BME280;49105;46.046;10.760;2023-05-07T05:37:10;95723.53;;;15.66;66.16
63019;BME280;49105;46.046;10.760;2023-05-07T05:39:35;95725.41;;;15.65;66.13
63019;BME280;49105;46.046;10.760;2023-05-07T05:42:01;95723.03;;;15.63;66.19
63019;BME280;49105;46.046;10.760;2023-05-07T05:44:26;95730.75;;;15.65;66.11
63019;BME280;49105;46.046;10.760;2023-05-07T05:46:51;95730.53;;;15.61;66.34
63019;BME280;49105;46.046;10.760;2023-05-07T05:49:19;95723.81;;;15.64;66.23
63019;BME280;49105;46.046;10.760;2023-05-07T05:51:44;95718.38;;;15.69;66.12
63019;BME280;49105;46.046;10.760;2023-05-07T05:54:10;95723.81;;;15.64;66.12
63019;BME280;49105;46.046;10.760;2023-05-07T05:56:36;95732.09;;;15.62;66.12
63019;BME280;49105;46.046;10.760;2023-05-07T05:59:03;95725.59;;;15.69;66.28
63019;BME280;49105;46.046;10.760;2023-05-07T06:01:29;95720.44;;;15.72;65.92
63019;BME280;49105;46.046;10.760;2023-05-07T06:03:54;95729.22;;;15.73;65.83
63019;BME280;49105;46.046;10.760;2023-05-07T06:06:19;95727.53;;;15.77;65.86
63019;BME280;49105;46.046;10.760;2023-05-07T06:08:45;95721.88;;;15.78;65.85
63019;BME280;49105;46.046;10.760;2023-05-07T06:11:10;95720.13;;;15.74;65.92
63019;BME280;49105;46.046;10.760;2023-05-07T06:13:36;95727.34;;;15.73;65.96
63019;BME280;49105;46.046;10.760;2023-05-07T06:16:01;95724.56;;;15.78;65.95
63019;BME280;49105;46.046;10.760;2023-05-07T06:18:27;95726.63;;;15.81;65.72
63019;BME280;49105;46.046;10.760;2023-05-07T06:20:53;95725.91;;;15.90;65.68
63019;BME280;49105;46.046;10.760;2023-05-07T06:23:18;95718.72;;;15.99;65.56
63019;BME280;49105;46.046;10.760;2023-05-07T06:25:50;95722.06;;;16.04;65.39
63019;BME280;49105;46.046;10.760;2023-05-07T06:28:17;95712.53;;;16.12;65.60
63019;BME280;49105;46.046;10.760;2023-05-07T06:30:43;95713.53;;;16.25;65.23
63019;BME280;49105;46.046;10.760;2023-05-07T06:33:08;95710.44;;;16.31;65.12
63019;BME280;49105;46.046;10.760;2023-05-07T06:35:33;95711.06;;;16.37;64.92
63019;BME280;49105;46.046;10.760;2023-05-07T06:38:08;95708.75;;;16.44;64.93
63019;BME280;49105;46.046;10.760;2023-05-07T06:40:39;95711.75;;;16.43;64.97
63019;BME280;49105;46.046;10.760;2023-05-07T06:43:06;95713.31;;;16.44;65.07
63019;BME280;49105;46.046;10.760;2023-05-07T06:45:31;95713.69;;;16.51;64.81
63019;BME280;49105;46.046;10.760;2023-05-07T06:47:56;95710.25;;;16.59;64.57
63019;BME280;49105;46.046;10.760;2023-05-07T06:50:21;95709.50;;;16.67;64.37
63019;BME280;49105;46.046;10.760;2023-05-07T06:52:47;95718.34;;;16.76;64.43
63019;BME280;49105;46.046;10.760;2023-05-07T06:55:12;95714.13;;;16.84;64.00
63019;BME280;49105;46.046;10.760;2023-05-07T06:57:37;95714.47;;;16.91;63.72
63019;BME280;49105;46.046;10.760;2023-05-07T07:00:04;95712.28;;;17.02;63.74
63019;BME280;49105;46.046;10.760;2023-05-07T07:02:32;95711.19;;;17.03;63.43
63019;BME280;49105;46.046;10.760;2023-05-07T07:04:57;95708.84;;;17.01;63.09
63019;BME280;49105;46.046;10.760;2023-05-07T07:07:22;95700.97;;;17.05;63.22
63019;BME280;49105;46.046;10.760;2023-05-07T07:09:49;95699.72;;;17.11;62.76
63019;BME280;49105;46.046;10.760;2023-05-07T07:12:14;95694.88;;;17.22;62.49
63019;BME280;49105;46.046;10.760;2023-05-07T07:14:39;95693.31;;;17.38;62.29
63019;BME280;49105;46.046;10.760;2023-05-07T07:17:05;95695.38;;;17.50;61.86
63019;BME280;49105;46.046;10.760;2023-05-07T07:19:30;95679.91;;;17.55;61.88
63019;BME280;49105;46.046;10.760;2023-05-07T07:21:55;95686.38;;;17.63;61.94
63019;BME280;49105;46.046;10.760;2023-05-07T07:24:21;95678.66;;;17.70;61.69
63019;BME280;49105;46.046;10.760;2023-05-07T07:26:46;95677.41;;;17.68;61.73
63019;BME280;49105;46.046;10.760;2023-05-07T07:29:11;95674.72;;;17.68;61.49
63019;BME280;49105;46.046;10.760;2023-05-07T07:31:37;95677.06;;;17.69;61.26
63019;BME280;49105;46.046;10.760;2023-05-07T07:34:02;95677.75;;;17.75;61.53
63019;BME280;49105;46.046;10.760;2023-05-07T07:36:27;95677.09;;;17.87;61.25
63019;BME280;49105;46.046;10.760;2023-05-07T07:38:53;95683.22;;;17.96;61.15
63019;BME280;49105;46.046;10.760;2023-05-07T07:41:19;95680.84;;;18.03;60.69
63019;BME280;49105;46.046;10.760;2023-05-07T07:43:45;95674.34;;;18.13;60.53
63019;BME280;49105;46.046;10.760;2023-05-07T07:46:11;95672.44;;;18.22;60.10
63019;BME280;49105;46.046;10.760;2023-05-07T07:48:36;95668.16;;;18.29;59.69
63019;BME280;49105;46.046;10.760;2023-05-07T07:51:02;95669.56;;;18.35;59.86
63019;BME280;49105;46.046;10.760;2023-05-07T07:53:28;95678.53;;;18.40;59.65
63019;BME280;49105;46.046;10.760;2023-05-07T07:55:53;95675.50;;;18.50;59.53
63019;BME280;49105;46.046;10.760;2023-05-07T07:58:18;95674.34;;;18.59;59.55
63019;BME280;49105;46.046;10.760;2023-05-07T08:00:44;95673.84;;;18.66;59.38
63019;BME280;49105;46.046;10.760;2023-05-07T08:03:09;95676.69;;;18.70;59.25
63019;BME280;49105;46.046;10.760;2023-05-07T08:05:35;95673.53;;;18.76;59.17
63019;BME280;49105;46.046;10.760;2023-05-07T08:08:01;95678.41;;;18.74;59.22
63019;BME280;49105;46.046;10.760;2023-05-07T08:10:26;95683.78;;;18.66;59.43
63019;BME280;49105;46.046;10.760;2023-05-07T08:12:52;95686.00;;;18.64;59.40
63019;BME280;49105;46.046;10.760;2023-05-07T08:15:17;95684.13;;;18.64;59.28
63019;BME280;49105;46.046;10.760;2023-05-07T08:17:42;95682.66;;;18.67;59.30
63019;BME280;49105;46.046;10.760;2023-05-07T08:20:08;95682.06;;;18.70;59.08
63019;BME280;49105;46.046;10.760;2023-05-07T08:22:34;95673.84;;;18.75;59.04
63019;BME280;49105;46.046;10.760;2023-05-07T08:24:59;95683.78;;;18.74;58.85
63019;BME280;49105;46.046;10.760;2023-05-07T08:27:37;95673.03;;;18.74;58.69
63019;BME280;49105;46.046;10.760;2023-05-07T08:30:03;95684.69;;;18.78;59.00
63019;BME280;49105;46.046;10.760;2023-05-07T08:32:28;95685.28;;;18.84;58.90
63019;BME280;49105;46.046;10.760;2023-05-07T08:34:54;95681.31;;;18.90;58.76
63019;BME280;49105;46.046;10.760;2023-05-07T08:37:19;95681.28;;;18.99;58.59
63019;BME280;49105;46.046;10.760;2023-05-07T08:39:45;95687.09;;;19.01;58.56
63019;BME280;49105;46.046;10.760;2023-05-07T08:42:10;95692.28;;;19.06;58.44
63019;BME280;49105;46.046;10.760;2023-05-07T08:44:36;95687.84;;;19.10;58.29
63019;BME280;49105;46.046;10.760;2023-05-07T08:47:03;95674.44;;;19.10;58.35
63019;BME280;49105;46.046;10.760;2023-05-07T08:49:31;95683.19;;;19.19;58.17
63019;BME280;49105;46.046;10.760;2023-05-07T08:51:56;95675.09;;;19.28;57.92
63019;BME280;49105;46.046;10.760;2023-05-07T08:54:21;95683.53;;;19.39;57.82
63019;BME280;49105;46.046;10.760;2023-05-07T08:56:47;95681.09;;;19.46;57.65
63019;BME280;49105;46.046;10.760;2023-05-07T08:59:12;95669.06;;;19.52;57.44
63019;BME280;49105;46.046;10.760;2023-05-07T09:01:37;95672.66;;;19.56;57.30
63019;BME280;49105;46.046;10.760;2023-05-07T09:04:03;95673.91;;;19.58;57.42
63019;BME280;49105;46.046;10.760;2023-05-07T09:06:29;95670.75;;;19.56;57.33
63019;BME280;49105;46.046;10.760;2023-05-07T09:08:55;95678.47;;;19.58;57.37
63019;BME280;49105;46.046;10.760;2023-05-07T09:11:21;95673.91;;;19.58;57.35
63019;BME280;49105;46.046;10.760;2023-05-07T09:13:47;95666.66;;;19.59;57.36
63019;BME280;49105;46.046;10.760;2023-05-07T09:16:12;95666.81;;;19.54;57.26
63019;BME280;49105;46.046;10.760;2023-05-07T09:18:44;95669.81;;;19.61;57.33
63019;BME280;49105;46.046;10.760;2023-05-07T09:21:10;95675.34;;;19.77;57.16
63019;BME280;49105;46.046;10.760;2023-05-07T09:23:36;95673.72;;;19.85;57.06
63019;BME280;49105;46.046;10.760;2023-05-07T09:26:01;95669.91;;;19.86;56.75
63019;BME280;49105;46.046;10.760;2023-05-07T09:28:27;95669.38;;;19.92;56.69
63019;BME280;49105;46.046;10.760;2023-05-07T09:30:52;95665.69;;;19.97;56.55
63019;BME280;49105;46.046;10.760;2023-05-07T09:33:17;95663.91;;;20.01;56.72
63019;BME280;49105;46.046;10.760;2023-05-07T09:35:43;95669.41;;;20.04;56.35
63019;BME280;49105;46.046;10.760;2023-05-07T09:38:08;95663.03;;;20.09;56.38
63019;BME280;49105;46.046;10.760;2023-05-07T09:40:33;95663.72;;;20.18;56.18
63019;BME280;49105;46.046;10.760;2023-05-07T09:43:11;95667.78;;;20.24;56.05
63019;BME280;49105;46.046;10.760;2023-05-07T09:45:36;95668.66;;;20.28;56.10
63019;BME280;49105;46.046;10.760;2023-05-07T09:48:02;95657.47;;;20.26;55.92
63019;BME280;49105;46.046;10.760;2023-05-07T09:50:31;95658.59;;;20.25;56.04
63019;BME280;49105;46.046;10.760;2023-05-07T09:52:58;95656.69;;;20.26;55.99
63019;BME280;49105;46.046;10.760;2023-05-07T09:55:24;95654.00;;;20.26;55.84
63019;BME280;49105;46.046;10.760;2023-05-07T09:57:51;95653.44;;;20.32;55.66
63019;BME280;49105;46.046;10.760;2023-05-07T10:00:18;95658.03;;;20.32;55.26
63019;BME280;49105;46.046;10.760;2023-05-07T10:02:44;95651.53;;;20.33;55.29
63019;BME280;49105;46.046;10.760;2023-05-07T10:05:13;95642.34;;;20.34;55.24
63019;BME280;49105;46.046;10.760;2023-05-07T10:07:39;95639.78;;;20.38;55.34
63019;BME280;49105;46.046;10.760;2023-05-07T10:10:05;95628.34;;;20.41;54.99
63019;BME280;49105;46.046;10.760;2023-05-07T10:12:31;95627.16;;;20.50;55.06
63019;BME280;49105;46.046;10.760;2023-05-07T10:15:03;95628.19;;;20.58;54.55
63019;BME280;49105;46.046;10.760;2023-05-07T10:17:28;95625.50;;;20.70;54.12
63019;BME280;49105;46.046;10.760;2023-05-07T10:19:54;95628.94;;;20.83;53.75
63019;BME280;49105;46.046;10.760;2023-05-07T10:22:19;95618.84;;;20.92;53.33
63019;BME280;49105;46.046;10.760;2023-05-07T10:24:45;95614.00;;;20.98;52.94
63019;BME280;49105;46.046;10.760;2023-05-07T10:27:13;95609.72;;;21.09;52.99
63019;BME280;49105;46.046;10.760;2023-05-07T10:32:39;95603.66;;;21.12;51.30
63019;BME280;49105;46.046;10.760;2023-05-07T10:35:06;95597.16;;;21.13;51.33
63019;BME280;49105;46.046;10.760;2023-05-07T10:37:35;95603.19;;;21.22;51.05
63019;BME280;49105;46.046;10.760;2023-05-07T10:40:01;95594.19;;;21.30;50.33
63019;BME280;49105;46.046;10.760;2023-05-07T10:42:26;95594.16;;;21.43;49.29
63019;BME280;49105;46.046;10.760;2023-05-07T10:44:52;95589.84;;;21.54;49.89
63019;BME280;49105;46.046;10.760;2023-05-07T10:47:17;95588.34;;;21.69;49.95
63019;BME280;49105;46.046;10.760;2023-05-07T10:52:19;95586.69;;;21.80;49.48
63019;BME280;49105;46.046;10.760;2023-05-07T10:54:44;95586.97;;;21.91;49.36
63019;BME280;49105;46.046;10.760;2023-05-07T10:57:32;95577.69;;;22.04;49.39
63019;BME280;49105;46.046;10.760;2023-05-07T10:59:57;95569.53;;;22.16;49.24
63019;BME280;49105;46.046;10.760;2023-05-07T11:02:23;95566.66;;;22.25;49.33
63019;BME280;49105;46.046;10.760;2023-05-07T11:07:31;95562.91;;;22.29;48.47
63019;BME280;49105;46.046;10.760;2023-05-07T11:09:57;95557.28;;;22.35;48.50
63019;BME280;49105;46.046;10.760;2023-05-07T11:15:01;95548.38;;;22.34;48.35
63019;BME280;49105;46.046;10.760;2023-05-07T11:17:26;95558.84;;;22.36;48.00
63019;BME280;49105;46.046;10.760;2023-05-07T11:19:55;95546.63;;;22.42;47.86
63019;BME280;49105;46.046;10.760;2023-05-07T11:25:08;95543.53;;;22.40;47.00
63019;BME280;49105;46.046;10.760;2023-05-07T11:27:33;95536.72;;;22.30;45.98
63019;BME280;49105;46.046;10.760;2023-05-07T11:29:59;95524.47;;;22.33;46.10
63019;BME280;49105;46.046;10.760;2023-05-07T11:32:26;95527.84;;;22.45;46.14
63019;BME280;49105;46.046;10.760;2023-05-07T11:34:52;95526.09;;;22.53;46.40
63019;BME280;49105;46.046;10.760;2023-05-07T11:37:18;95522.00;;;22.59;46.45
63019;BME280;49105;46.046;10.760;2023-05-07T11:39:43;95520.66;;;22.69;46.54
63019;BME280;49105;46.046;10.760;2023-05-07T11:44:53;95512.38;;;22.77;46.32
63019;BME280;49105;46.046;10.760;2023-05-07T11:47:18;95510.81;;;22.76;45.92
63019;BME280;49105;46.046;10.760;2023-05-07T11:49:46;95510.22;;;22.87;45.96
63019;BME280;49105;46.046;10.760;2023-05-07T11:52:12;95506.56;;;22.95;46.01
63019;BME280;49105;46.046;10.760;2023-05-07T11:54:38;95498.41;;;22.91;45.73
63019;BME280;49105;46.046;10.760;2023-05-07T11:57:03;95509.34;;;22.98;45.79
63019;BME280;49105;46.046;10.760;2023-05-07T11:59:28;95509.28;;;22.95;45.34
63019;BME280;49105;46.046;10.760;2023-05-07T12:01:57;95508.13;;;22.96;45.55
63019;BME280;49105;46.046;10.760;2023-05-07T12:04:24;95503.75;;;23.07;45.80
63019;BME280;49105;46.046;10.760;2023-05-07T12:06:49;95497.78;;;23.17;45.91
63019;BME280;49105;46.046;10.760;2023-05-07T12:09:18;95494.00;;;23.22;45.79
63019;BME280;49105;46.046;10.760;2023-05-07T12:11:45;95486.75;;;23.26;45.86
63019;BME280;49105;46.046;10.760;2023-05-07T12:14:10;95487.09;;;23.24;45.54
63019;BME280;49105;46.046;10.760;2023-05-07T12:16:36;95486.00;;;23.06;45.43
63019;BME280;49105;46.046;10.760;2023-05-07T12:19:01;95489.25;;;22.96;45.53
63019;BME280;49105;46.046;10.760;2023-05-07T12:21:26;95487.88;;;22.86;45.80
63019;BME280;49105;46.046;10.760;2023-05-07T12:23:52;95489.06;;;22.69;45.40
63019;BME280;49105;46.046;10.760;2023-05-07T12:26:18;95482.56;;;22.54;45.53
63019;BME280;49105;46.046;10.760;2023-05-07T12:28:44;95485.56;;;22.49;45.92
63019;BME280;49105;46.046;10.760;2023-05-07T12:31:09;95490.88;;;22.46;46.00
63019;BME280;49105;46.046;10.760;2023-05-07T12:33:35;95480.88;;;22.46;46.07
63019;BME280;49105;46.046;10.760;2023-05-07T12:36:02;95482.53;;;22.51;46.08
63019;BME280;49105;46.046;10.760;2023-05-07T12:38:32;95479.69;;;22.63;45.93
63019;BME280;49105;46.046;10.760;2023-05-07T12:40:59;95473.81;;;22.77;45.82
63019;BME280;49105;46.046;10.760;2023-05-07T12:43:25;95470.34;;;22.76;45.57
63019;BME280;49105;46.046;10.760;2023-05-07T12:45:51;95473.19;;;22.84;45.40
63019;BME280;49105;46.046;10.760;2023-05-07T12:48:17;95462.69;;;22.98;44.75
63019;BME280;49105;46.046;10.760;2023-05-07T12:50:42;95469.84;;;23.10;44.37
63019;BME280;49105;46.046;10.760;2023-05-07T12:53:09;95463.94;;;23.23;43.92
63019;BME280;49105;46.046;10.760;2023-05-07T12:55:43;95464.06;;;23.31;44.01
63019;BME280;49105;46.046;10.760;2023-05-07T12:58:14;95455.75;;;23.39;44.12
63019;BME280;49105;46.046;10.760;2023-05-07T13:00:39;95458.06;;;23.41;44.22